Latest Weather Observations for PORTABLE RFSNSW03

IDN60801

Issued at 11:02 am EDT Thursday 21 November 2019 (issued every 10 minutes, with the page automatically refreshed every 10 minutes)

About weather observations | Map of weather stations | Latest weather observations for NSW | Other Formats
Station Details ID: 250056 Name: PORTABLE RFSNSW03 Lat: -31.24 Lon: 152.08 Height: 1006.0 m

Portable automatic weather stations (PAWS) are operated by other organisations, such as Fire and Emergency Services, and are included here by agreement. Portable stations may be deployed to a location for a short period and their location may be subject to change without notice. Wind observations from these stations are provided from heights of either three (3) or ten (10) metres above ground level (AGL).

Data from the previous 72 hours. | See also: Recent months for locations in New South Wales
Date/Time
EDT
Temp
°C
App
Temp
°C
Dew
Point
°C
Rel
Hum
%
Delta-T
°C
Wind Press
QNH
hPa
Press
MSL
hPa
Rain since
9am
mm
Dir  Spd
km/h
Gust
km/h
Spd
kts
Gust
kts
21/10:50am 23.3 20.4 12.2 49 6.6 WNW 19 30 10 16 - - 0.0
21/10:40am 22.7 20.5 12.0 50 6.3 NW 15 22 8 12 - - 0.0
21/10:30am 22.1 19.1 12.1 53 5.9 NW 19 30 10 16 - - 0.0
21/10:20am - - 12.5 - - WNW 22 30 12 16 - - 0.0
21/10:10am - - 12.5 - - WNW 22 26 12 14 - - 0.0
21/10:00am - - 12.4 - - W 30 32 16 17 - - 0.0
21/09:50am - - 12.5 - - W 26 30 14 16 - - 0.0
21/09:40am - - 12.4 - - W 30 35 16 19 - - 0.0
21/09:30am - - 12.6 - - W 30 39 16 21 - - 0.0
21/09:20am - - 12.5 - - W 32 35 17 19 - - 0.0
21/09:10am - - 12.5 - - WNW 26 32 14 17 - - 0.0
21/09:00am - - 12.4 - - WNW 26 30 14 16 - - 0.0
21/08:50am - - 12.9 - - W 22 26 12 14 - - 0.0
21/08:40am - - 13.1 - - W 22 26 12 14 - - 0.0
21/08:30am - - 13.6 - - WNW 19 19 10 10 - - 0.0
21/08:20am - - 13.7 - - W 19 22 10 12 - - 0.0
21/08:10am - - 13.8 - - WNW 19 22 10 12 - - 0.0
21/08:00am - - 13.6 - - WNW 19 22 10 12 - - 0.0
21/07:50am - - 13.4 - - WNW 19 22 10 12 - - 0.0
21/07:40am - - 13.4 - - WNW 15 19 8 10 - - 0.0
21/07:20am - - 13.0 - - WNW 11 15 6 8 - - 0.0
21/07:10am - - 12.8 - - W 11 15 6 8 - - 0.0
21/07:00am - - 12.5 - - W 15 15 8 8 - - 0.0
21/06:50am - - 12.3 - - WSW 11 11 6 6 - - 0.0
21/06:40am - - 12.1 - - WSW 15 15 8 8 - - 0.0
21/06:30am - - 12.0 - - WSW 11 15 6 8 - - 0.0
21/06:20am - - 11.6 - - W 11 11 6 6 - - 0.0
21/06:10am - - 11.6 - - W 15 15 8 8 - - 0.0
21/06:00am - - 11.6 - - W 7 11 4 6 - - 0.0
21/05:50am - - 11.6 - - W 11 15 6 8 - - 0.0
21/05:40am - - 11.9 - - WNW 11 11 6 6 - - 0.0
21/05:30am - - 11.8 - - WNW 11 15 6 8 - - 0.0
21/05:20am - - 11.7 - - WNW 11 11 6 6 - - 0.0
21/05:10am - - 12.0 - - NW 11 15 6 8 - - 0.0
21/04:20am 12.4 13.0 11.9 97 0.3 CALM 0 0 0 0 - - 0.0
21/04:10am 12.3 12.9 11.8 97 0.3 CALM 0 0 0 0 - - 0.0
21/04:00am 12.3 12.9 11.8 97 0.3 CALM 0 4 0 2 - - 0.0
21/03:50am 12.2 12.7 11.7 97 0.3 CALM 0 0 0 0 - - 0.0
21/03:40am 12.3 12.9 11.8 97 0.3 CALM 0 0 0 0 - - 0.0
21/03:30am 12.3 12.0 11.6 95 0.4 WNW 4 7 2 4 - - 0.0
21/03:10am 12.5 13.1 11.8 95 0.4 CALM 0 0 0 0 - - 0.0
21/03:00am 12.6 13.2 11.8 95 0.4 CALM 0 4 0 2 - - 0.0
21/02:50am 12.8 12.6 11.9 94 0.5 WSW 4 11 2 6 - - 0.0
21/02:40am 13.1 12.9 11.9 92 0.7 ENE 4 7 2 4 - - 0.0
21/02:30am 13.1 13.0 12.0 93 0.6 ESE 4 7 2 4 - - 0.0
21/02:20am 13.1 13.8 12.1 94 0.6 CALM 0 4 0 2 - - 0.0
21/02:10am 13.1 13.8 12.1 94 0.6 CALM 0 4 0 2 - - 0.0
21/02:00am 13.1 13.7 12.0 93 0.6 CALM 0 7 0 4 - - 0.0
21/01:50am 13.3 13.9 12.0 92 0.7 CALM 0 7 0 4 - - 0.0
21/01:40am 13.3 14.0 12.2 93 0.6 CALM 0 4 0 2 - - 0.0
21/01:30am 13.3 14.0 12.2 93 0.6 CALM 0 0 0 0 - - 0.0
21/01:20am 13.3 14.0 12.3 94 0.6 CALM 0 0 0 0 - - 0.0
21/01:10am 13.2 13.9 12.3 94 0.5 CALM 0 0 0 0 - - 0.0
21/01:00am 13.1 13.8 12.3 95 0.5 CALM 0 4 0 2 - - 0.0
21/12:50am 13.2 13.9 12.3 94 0.5 CALM 0 0 0 0 - - 0.0
21/12:40am 13.3 14.0 12.3 94 0.6 CALM 0 0 0 0 - - 0.0
21/12:30am 13.4 13.4 12.3 93 0.6 ESE 4 7 2 4 - - 0.0
21/12:20am 13.5 13.5 12.3 92 0.7 E 4 7 2 4 - - 0.0
21/12:10am 13.5 14.3 12.4 93 0.6 CALM 0 4 0 2 - - 0.0
 
Date/Time
EDT
Temp
°C
App
Temp
°C
Dew
Point
°C
Rel
Hum
%
Delta-T
°C
Wind Press
QNH
hPa
Press
MSL
hPa
Rain since
9am
mm
Dir  Spd
km/h
Gust
km/h
Spd
kts
Gust
kts
20/11:50pm 13.8 14.6 12.7 93 0.6 CALM 0 0 0 0 - - 0.0
20/11:40pm 13.9 14.0 12.8 93 0.6 SE 4 7 2 4 - - 0.0
20/11:20pm 14.1 15.0 13.0 93 0.6 CALM 0 0 0 0 - - 0.0
20/11:10pm 14.2 15.1 13.0 92 0.7 CALM 0 0 0 0 - - 0.0
20/11:00pm 14.3 15.2 13.0 92 0.8 CALM 0 0 0 0 - - 0.0
20/10:50pm 14.4 15.2 12.6 89 1.0 CALM 0 0 0 0 - - 0.0
20/10:40pm 14.7 14.3 12.9 89 1.0 E 7 11 4 6 - - 0.0
20/10:30pm 14.7 13.5 12.9 89 1.0 E 11 11 6 6 - - 0.0
20/10:20pm 14.6 13.5 13.0 90 0.9 ESE 11 11 6 6 - - 0.0
20/10:10pm 14.7 13.5 12.8 88 1.1 ESE 11 11 6 6 - - 0.0
20/10:00pm 14.8 13.7 13.0 89 1.0 ESE 11 11 6 6 - - 0.0
20/09:50pm 15.0 14.6 13.0 88 1.2 ESE 7 11 4 6 - - 0.0
20/09:40pm 15.3 14.2 13.0 86 1.3 ESE 11 11 6 6 - - 0.0
20/09:30pm 15.5 14.4 13.0 85 1.5 ESE 11 15 6 8 - - 0.0
20/09:20pm 15.7 13.9 13.2 85 1.5 E 15 15 8 8 - - 0.0
20/09:10pm 15.8 14.1 13.5 86 1.4 ESE 15 19 8 10 - - 0.0
20/09:00pm 15.9 14.2 13.7 87 1.3 ESE 15 19 8 10 - - 0.0
20/08:50pm 15.9 14.3 13.9 88 1.2 ESE 15 19 8 10 - - 0.0
20/08:40pm 15.9 14.3 13.9 88 1.2 ESE 15 19 8 10 - - 0.0
20/08:30pm 16.0 13.6 13.9 87 1.2 ESE 19 19 10 10 - - 0.0
20/08:20pm 16.1 13.7 13.9 87 1.3 ESE 19 22 10 12 - - 0.0
20/08:10pm 16.2 13.8 13.8 86 1.4 ESE 19 22 10 12 - - 0.0
20/08:00pm 16.4 14.0 13.8 84 1.5 E 19 22 10 12 - - 0.0
20/07:50pm 16.7 15.0 13.7 82 1.8 ESE 15 19 8 10 - - 0.0
20/07:40pm 16.9 16.0 13.6 81 2.0 ESE 11 15 6 8 - - 0.0
20/07:30pm 17.4 16.4 13.5 78 2.3 E 11 15 6 8 - - 0.0
20/07:20pm 17.9 16.9 13.5 75 2.6 E 11 15 6 8 - - 0.0
20/06:50pm 18.9 16.3 13.2 69 3.4 ESE 19 19 10 10 - - 0.0
20/06:40pm 19.2 17.3 13.1 68 3.6 ESE 15 19 8 10 - - 0.0
20/06:30pm 19.6 16.9 13.0 65 3.9 ESE 19 22 10 12 - - 0.0
20/06:20pm 20.0 17.3 12.8 63 4.3 E 19 19 10 10 - - 0.0
20/06:10pm 20.5 17.7 12.5 60 4.7 E 19 22 10 12 - - 0.0
20/06:00pm 21.0 18.1 12.3 57 5.1 E 19 22 10 12 - - 0.0
20/05:50pm 21.1 17.6 12.2 56 5.2 E 22 26 12 14 - - 0.0
20/05:40pm 21.7 18.8 12.2 54 5.6 E 19 22 10 12 - - 0.0
20/05:30pm 22.0 18.4 12.0 53 5.9 E 22 26 12 14 - - 0.0
20/05:20pm 22.4 18.7 11.6 50 6.3 E 22 22 12 12 - - 0.0
20/05:10pm 22.7 19.5 11.1 48 6.8 ESE 19 22 10 12 - - 0.0
20/05:00pm 23.2 19.8 10.6 45 7.3 ESE 19 26 10 14 - - 0.0
20/04:50pm 23.8 20.4 10.7 43 7.6 ESE 19 22 10 12 - - 0.0
20/04:40pm 23.9 19.9 10.4 42 7.8 E 22 22 12 12 - - 0.0
20/04:30pm 24.2 20.2 10.6 42 7.9 - 22 22 12 12 - - 0.0
20/04:20pm 24.4 20.5 10.7 42 8.0 ESE 22 26 12 14 - - 0.0
20/04:10pm 24.6 20.5 10.0 39 8.4 ESE 22 26 12 14 - - 0.0
20/04:00pm 24.6 20.7 10.8 42 8.1 E 22 26 12 14 - - 0.0
20/03:50pm 24.9 20.9 10.6 40 8.3 E 22 26 12 14 - - 0.0
20/03:40pm 25.1 21.2 10.7 40 8.4 E 22 26 12 14 - - 0.0
20/03:30pm 25.2 21.4 11.0 41 8.3 E 22 26 12 14 - - 0.0
20/03:20pm 25.4 22.1 10.9 40 8.5 E 19 26 10 14 - - 0.0
20/03:10pm 25.8 22.0 11.2 40 8.6 E 22 26 12 14 - - 0.0
20/03:00pm 26.2 22.1 10.2 36 9.3 E 22 22 12 12 - - 0.0
20/02:50pm 26.4 22.7 9.6 34 9.7 ESE 19 22 10 12 - - 0.0
20/02:40pm 26.2 20.4 6.2 28 10.9 ESE 26 32 14 17 - - 0.0
20/02:30pm 26.4 20.9 7.6 30 10.5 ESE 26 30 14 16 - - 0.0
20/02:20pm 26.2 20.5 6.5 28 10.8 ESE 26 32 14 17 - - 0.0
20/02:10pm 26.1 19.7 6.9 29 10.6 SE 30 32 16 17 - - 0.0
20/02:00pm 26.0 21.6 8.8 33 9.8 ESE 22 26 12 14 - - 0.0
20/01:40pm 25.4 19.6 9.3 36 9.2 SE 30 35 16 19 - - 0.0
20/01:30pm 25.4 19.5 9.0 35 9.3 SE 30 35 16 19 - - 0.0
20/01:20pm 25.5 20.6 9.8 37 9.1 SE 26 32 14 17 - - 0.0
20/01:10pm 25.0 20.0 9.6 37 8.8 SE 26 32 14 17 - - 0.0
20/01:00pm 24.6 19.8 10.4 40 8.2 ESE 26 32 14 17 - - 0.0
20/12:40pm 24.5 18.7 10.7 41 8.0 SE 32 39 17 21 - - 0.0
20/12:30pm 24.6 19.0 10.3 40 8.3 SE 30 32 16 17 - - 0.0
20/12:20pm 23.8 18.4 10.9 44 7.5 ESE 30 39 16 21 - - 0.0
20/12:10pm 24.2 19.8 11.6 45 7.4 ESE 26 32 14 17 - - 0.0
20/12:00pm 23.9 19.2 10.8 43 7.6 ESE 26 30 14 16 - - 0.0
20/11:50am 24.0 18.7 11.1 44 7.6 ESE 30 35 16 19 - - 0.0
20/11:40am 23.3 17.8 10.6 44 7.4 ESE 30 39 16 21 - - 0.0
20/11:30am 22.9 16.6 11.0 47 6.9 SE 35 39 19 21 - - 0.0
20/11:20am 22.5 16.8 11.0 48 6.7 ESE 32 39 17 21 - - 0.0
20/11:10am 22.8 16.5 11.2 48 6.8 ESE 35 39 19 21 - - 0.0
20/11:00am 23.4 18.0 10.8 45 7.3 ESE 30 35 16 19 - - 0.0
20/10:50am 24.0 18.7 11.1 44 7.6 ESE 30 32 16 17 - - 0.0
20/10:40am 25.2 20.5 10.5 39 8.6 ESE 26 30 14 16 - - 0.0
20/10:30am 25.2 21.5 9.6 37 9.0 ESE 19 26 10 14 - - 0.0
20/10:20am 25.4 22.3 8.7 34 9.5 ESE 15 22 8 12 - - 0.0
20/10:10am 25.3 22.0 8.1 33 9.6 ESE 15 19 8 10 - - 0.0
20/09:50am 24.6 - 5.3 28 10.3 - - - - - - - 0.0
20/09:40am 23.8 - 4.0 27 10.2 - - - - - - - 0.0
20/09:30am 23.0 - 6.6 34 8.8 - - - - - - - 0.0
20/09:20am 22.7 - 6.4 35 8.7 - - - - - - - 0.0
20/09:10am 22.5 - 6.1 34 8.7 - - - - - - - 0.0
20/09:00am 22.0 - 5.4 34 8.7 - - - - - - - 0.0
20/08:50am 21.8 - 5.4 34 8.6 - - - - - - - 0.0
20/08:40am 21.2 - 5.0 34 8.4 - - - - - - - 0.0
20/08:30am 20.4 - 4.8 36 8.0 - - - - - - - 0.0
20/08:20am 19.6 - 4.7 37 7.6 - - - - - - - 0.0
20/08:10am 19.0 - 4.6 38 7.3 - - - - - - - 0.0
20/08:00am 18.3 - 4.2 39 7.1 - - - - - - - 0.0
20/07:40am 17.4 - 3.9 40 6.7 - - - - - - - 0.0
20/07:30am 17.0 - 3.6 41 6.6 - - - - - - - 0.0
20/07:20am 16.5 - 3.9 43 6.2 - - - - - - - 0.0
20/07:10am 15.9 - 2.9 41 6.2 - - - - - - - 0.0
20/07:00am 15.5 - 3.1 43 6.0 - - - - - - - 0.0
20/06:50am 15.3 - 3.0 43 5.9 - - - - - - - 0.0
20/06:40am 15.1 - 2.7 43 5.9 - - - - - - - 0.0
20/06:30am 14.9 - 3.2 45 5.6 - - - - - - - 0.0
20/06:20am 14.7 - 3.4 46 5.4 - - - - - - - 0.0
20/06:10am 14.9 - 3.2 45 5.6 - - - - - - - 0.0
20/06:00am 15.2 - 2.9 43 5.9 - - - - - - - 0.0
20/05:50am 15.2 - 2.2 41 6.1 - - - - - - - 0.0
20/05:40am 15.2 - 1.9 40 6.2 - - - - - - - 0.0
20/05:30am 15.8 - 1.6 38 6.6 - - - - - - - 0.0
20/05:20am 15.6 - 2.2 40 6.3 - - - - - - - 0.0
20/05:10am 15.4 - 2.2 41 6.2 - - - - - - - 0.0
20/05:00am 15.5 - 2.4 41 6.2 - - - - - - - 0.0
20/04:50am 15.8 - 2.2 40 6.4 - - - - - - - 0.0
20/04:40am 15.7 - 2.3 40 6.3 - - - - - - - 0.0
20/04:30am 15.8 - 2.0 39 6.5 - - - - - - - 0.0
20/04:20am 15.6 - 1.8 39 6.5 - - - - - - - 0.0
20/04:10am 15.1 - 2.1 41 6.1 - - - - - - - 0.0
20/04:00am 15.3 - 2.3 41 6.1 - - - - - - - 0.0
20/03:50am 15.5 - 2.5 41 6.2 - - - - - - - 0.0
20/03:40am 15.9 - 2.2 39 6.5 - - - - - - - 0.0
20/03:30am 16.2 - 2.3 39 6.6 - - - - - - - 0.0
20/03:20am 16.9 - 2.2 37 7.0 - - - - - - - 0.0
20/03:10am 17.2 - 1.7 35 7.3 - - - - - - - 0.0
20/03:00am 17.2 - 1.8 35 7.3 - - - - - - - 0.0
20/02:50am 17.1 - 1.9 36 7.2 - - - - - - - 0.0
20/02:40am 17.1 - 1.8 35 7.2 - - - - - - - 0.0
 
Date/Time
EDT
Temp
°C
App
Temp
°C
Dew
Point
°C
Rel
Hum
%
Delta-T
°C
Wind Press
QNH
hPa
Press
MSL
hPa
Rain since
9am
mm
Dir  Spd
km/h
Gust
km/h
Spd
kts
Gust
kts
19/02:10pm 30.2 - -4.2 10 16.1 - - - - - - - 0.0
19/02:00pm 30.1 - -3.8 11 15.9 - - - - - - - 0.0
19/01:50pm 30.3 - -3.9 10 16.1 - - - - - - - 0.0
19/01:40pm 29.8 - -3.6 11 15.7 - - - - - - - 0.0
19/01:30pm 29.9 - -4.1 10 15.9 - - - - - - - 0.0
19/01:20pm 29.6 - -4.4 10 15.8 - - - - - - - 0.0
19/01:10pm 29.3 - -3.9 11 15.5 - - - - - - - 0.0
19/01:00pm 28.7 - -4.1 11 15.2 - - - - - - - 0.0
19/12:50pm 29.0 - -4.9 10 15.5 - - - - - - - 0.0
19/12:40pm 28.3 - -5.4 10 15.2 - - - - - - - 0.0
19/12:30pm 29.1 - -4.8 10 15.5 - - - - - - - 0.0
19/12:20pm 28.8 - -5.7 10 15.5 - - - - - - - 0.0
19/12:10pm 28.6 - -6.2 10 15.5 - - - - - - - 0.0
19/12:00pm 28.3 - -4.9 11 15.1 - - - - - - - 0.0
19/11:50am 28.1 - -6.6 10 15.3 - - - - - - - 0.0
19/11:40am 28.1 - -5.7 10 15.1 - - - - - - - 0.0
19/11:30am 28.1 - -5.5 10 15.1 - - - - - - - 0.0
19/11:20am 27.9 - -6.4 10 15.1 - - - - - - - 0.0
19/11:10am 27.5 - -7.9 9 15.2 - - - - - - - 0.0
19/11:00am 27.4 - -7.1 10 15.0 - - - - - - - 0.0
19/10:30am 26.4 - -4.0 13 13.8 - - - - - - - 0.0
19/10:20am 25.5 - -2.9 15 13.1 - - - - - - - 0.0
19/10:10am 24.8 - -2.8 16 12.7 - - - - - - - 0.0
19/09:40am 23.3 - 0.7 22 11.0 - - - - - - - 0.0
19/09:30am 22.8 - 1.2 24 10.5 - - - - - - - 0.0
19/09:10am 21.7 - 1.8 27 9.7 - - - - - - - 0.0
19/09:00am 21.1 - 0.9 26 9.7 - - - - - - - 0.0
19/08:50am 20.7 - 2.1 29 9.1 - - - - - - - 0.0
19/08:40am 20.2 - 4.5 35 8.0 - - - - - - - 0.0
19/08:30am 18.9 - 4.1 37 7.4 - - - - - - - 0.0
19/08:20am 18.0 - 4.7 41 6.7 - - - - - - - 0.0
19/08:10am 17.4 - 6.8 49 5.5 - - - - - - - 0.0
19/08:00am 17.0 - 6.1 48 5.6 - - - - - - - 0.0
19/07:50am 16.3 - 7.6 56 4.6 - - - - - - - 0.0
19/07:40am 15.8 - 7.9 59 4.2 - - - - - - - 0.0
19/07:30am 15.4 - 9.1 66 3.4 - - - - - - - 0.0
19/07:20am 15.1 - 6.3 55 4.5 - - - - - - - 0.0
19/07:10am 14.4 - 6.7 60 3.9 - - - - - - - 0.0
19/07:00am 14.0 - 7.9 66 3.2 - - - - - - - 0.0
19/06:50am 14.0 - 6.9 62 3.6 - - - - - - - 0.0
19/06:40am 14.5 - 4.4 50 4.9 - - - - - - - 0.0
19/06:30am 14.5 - 0.7 39 6.2 - - - - - - - 0.0
19/06:20am 13.7 - 1.9 44 5.4 - - - - - - - 0.0
19/06:10am 12.9 - 3.8 54 4.3 - - - - - - - 0.0
19/06:00am 12.4 - 8.2 75 2.2 - - - - - - - 0.0
19/05:50am 12.4 - 8.8 79 1.9 - - - - - - - 0.0
19/05:40am 12.4 - 8.0 74 2.3 - - - - - - - 0.0
19/05:30am 12.2 - 7.7 74 2.3 - - - - - - - 0.0
19/05:20am 12.3 - 8.7 79 1.9 - - - - - - - 0.0
19/05:10am 12.4 - 8.0 74 2.3 - - - - - - - 0.0
19/05:00am 12.4 - 9.1 80 1.8 - - - - - - - 0.0
19/04:50am 12.6 - 8.9 78 2.0 - - - - - - - 0.0
19/04:40am 12.5 - 8.8 78 2.0 - - - - - - - 0.0
19/04:30am 12.5 - 9.1 80 1.8 - - - - - - - 0.0
19/04:20am 12.4 - 9.1 80 1.8 - - - - - - - 0.0
19/04:10am 12.6 - 9.2 80 1.8 - - - - - - - 0.0
19/04:00am 12.6 - 9.2 80 1.8 - - - - - - - 0.0
19/03:50am 12.9 - 9.0 77 2.1 - - - - - - - 0.0
19/03:40am 12.6 - 9.1 79 1.9 - - - - - - - 0.0
19/03:30am 12.8 - 9.3 79 1.9 - - - - - - - 0.0
19/03:20am 13.1 - 9.0 76 2.2 - - - - - - - 0.0
19/03:10am 12.8 - 9.0 78 2.0 - - - - - - - 0.0
19/03:00am 12.3 - 9.2 81 1.6 - - - - - - - 0.0
19/02:50am 12.5 - 9.4 81 1.7 - - - - - - - 0.0
19/02:40am 12.6 - 9.0 79 1.9 - - - - - - - 0.0
19/02:30am 12.6 - 9.7 82 1.6 - - - - - - - 0.0
19/02:20am 13.4 - 9.2 76 2.2 - - - - - - - 0.0
19/02:10am 13.4 - 9.1 75 2.3 - - - - - - - 0.0
19/02:00am 13.1 - 9.4 78 2.0 - - - - - - - 0.0
19/01:50am 12.9 - 9.7 81 1.7 - - - - - - - 0.0
19/01:40am 13.0 - 9.4 79 1.9 - - - - - - - 0.0
19/01:30am 12.5 - 9.7 83 1.5 - - - - - - - 0.0
19/01:20am 12.7 - 9.6 81 1.7 - - - - - - - 0.0
19/01:10am 12.8 - 9.8 82 1.6 - - - - - - - 0.0
19/01:00am 12.8 - 9.9 82 1.6 - - - - - - - 0.0
19/12:50am 12.9 - 9.8 81 1.7 - - - - - - - 0.0
19/12:40am 12.9 - 9.9 82 1.6 - - - - - - - 0.0
19/12:30am 13.0 - 9.7 80 1.8 - - - - - - - 0.0
19/12:20am 13.2 - 10.0 81 1.7 - - - - - - - 0.0
19/12:10am 13.5 - 9.7 78 2.1 - - - - - - - 0.0
19/12:00am 13.5 - 9.7 78 2.1 - - - - - - - 0.0
 
Date/Time
EDT
Temp
°C
App
Temp
°C
Dew
Point
°C
Rel
Hum
%
Delta-T
°C
Wind Press
QNH
hPa
Press
MSL
hPa
Rain since
9am
mm
Dir  Spd
km/h
Gust
km/h
Spd
kts
Gust
kts
18/11:50pm 13.2 - 9.5 78 2.0 - - - - - - - 0.0
18/11:40pm 13.2 - 9.4 78 2.0 - - - - - - - 0.0
18/11:30pm 13.3 - 9.4 77 2.1 - - - - - - - 0.0
18/11:20pm 13.6 - 9.4 76 2.3 - - - - - - - 0.0
18/11:10pm 13.9 - 9.5 75 2.4 - - - - - - - 0.0
18/11:00pm 14.2 - 9.2 72 2.7 - - - - - - - 0.0
18/10:50pm 14.3 - 9.2 71 2.7 - - - - - - - 0.0
18/10:40pm 14.3 - 9.3 72 2.7 - - - - - - - 0.0
18/10:30pm 14.4 - 9.4 72 2.7 - - - - - - - 0.0
18/10:20pm 14.5 - 9.3 71 2.8 - - - - - - - 0.0
18/10:10pm 14.4 - 9.3 71 2.8 - - - - - - - 0.0
18/10:00pm 14.0 - 9.6 75 2.4 - - - - - - - 0.0
18/09:50pm 14.1 - 10.6 79 1.9 - - - - - - - 0.0
18/09:40pm 14.6 - 10.8 78 2.1 - - - - - - - 0.0
18/09:30pm 15.1 - 9.6 69 3.0 - - - - - - - 0.0
18/09:20pm 15.0 - 9.8 71 2.8 - - - - - - - 0.0
18/09:10pm 15.1 - 10.5 74 2.6 - - - - - - - 0.0
18/09:00pm 15.3 - 10.4 72 2.7 - - - - - - - 0.0
18/08:50pm 15.5 - 10.7 73 2.7 - - - - - - - 0.0
18/08:40pm 15.7 - 10.9 73 2.7 - - - - - - - 0.0
18/08:30pm 15.9 - 10.7 71 2.9 - - - - - - - 0.0
18/08:20pm 15.9 - 10.7 71 2.9 - - - - - - - 0.0
18/08:10pm 16.1 - 10.8 71 3.0 - - - - - - - 0.0
18/08:00pm 16.3 - 10.9 70 3.0 - - - - - - - 0.0
18/07:50pm 16.6 - 10.7 68 3.3 - - - - - - - 0.0
18/07:40pm 16.7 - 10.5 67 3.5 - - - - - - - 0.0
18/07:30pm 17.0 - 10.6 66 3.6 - - - - - - - 0.0
18/07:20pm 17.4 - 10.8 65 3.7 - - - - - - - 0.0
18/07:10pm 17.8 - 10.8 63 4.0 - - - - - - - 0.0
18/07:00pm 18.3 - 11.0 62 4.2 - - - - - - - 0.0
18/06:50pm 18.7 - 10.9 60 4.4 - - - - - - - 0.0
18/06:40pm 19.0 - 10.8 59 4.7 - - - - - - - 0.0
18/06:30pm 19.2 - 10.7 58 4.8 - - - - - - - 0.0
18/06:20pm 19.5 - 10.7 56 5.0 - - - - - - - 0.0
18/06:10pm 19.7 - 10.6 55 5.2 - - - - - - - 0.0
18/06:00pm 19.9 - 10.6 55 5.3 - - - - - - - 0.0
18/05:50pm 20.3 - 10.6 53 5.5 - - - - - - - 0.0
18/05:40pm 20.7 - 10.4 51 5.9 - - - - - - - 0.0
18/05:30pm 21.2 - 10.2 49 6.3 - - - - - - - 0.0
18/05:20pm 21.8 - 9.8 46 6.8 - - - - - - - 0.0
18/05:10pm 22.4 - 9.6 44 7.3 - - - - - - - 0.0
18/05:00pm 22.9 - 9.2 41 7.7 - - - - - - - 0.0
18/04:50pm 23.1 - 8.6 39 8.1 - - - - - - - 0.0
18/04:40pm 23.1 - 8.4 39 8.2 - - - - - - - 0.0
18/04:30pm 23.3 - 8.6 39 8.2 - - - - - - - 0.0
18/04:20pm 23.1 - 8.5 39 8.1 - - - - - - - 0.0
18/04:10pm 22.7 - 8.4 40 7.9 - - - - - - - 0.0
18/04:00pm 22.5 - 8.3 40 7.9 - - - - - - - 0.0
18/03:50pm 22.5 - 8.7 41 7.7 - - - - - - - 0.0
18/03:40pm 23.5 - 8.5 38 8.4 - - - - - - - 0.0
18/03:30pm 24.0 - 9.0 38 8.5 - - - - - - - 0.0
18/03:20pm 24.9 - 7.1 32 9.8 - - - - - - - 0.0
18/03:10pm 24.9 - 7.0 31 9.8 - - - - - - - 0.0
18/03:00pm 24.3 - 7.6 34 9.2 - - - - - - - 0.0
18/02:50pm 24.2 - 4.0 27 10.5 - - - - - - - 0.0
18/02:40pm 23.7 - 4.1 28 10.1 - - - - - - - 0.0
18/02:30pm 23.7 - 4.2 28 10.1 - - - - - - - 0.0
18/02:20pm 23.5 - 4.5 29 9.9 - - - - - - - 0.0
18/02:10pm 23.6 - 5.0 30 9.8 - - - - - - - 0.0
18/02:00pm 23.6 - 5.2 30 9.7 - - - - - - - 0.0
18/01:50pm 23.1 - 5.9 33 9.2 - - - - - - - 0.0
18/01:40pm 22.7 - 5.4 32 9.1 - - - - - - - 0.0
18/01:30pm 22.4 - 6.0 34 8.7 - - - - - - - 0.0
18/01:20pm 22.6 - 6.1 34 8.8 - - - - - - - 0.0
18/01:10pm 22.3 - 5.8 34 8.7 - - - - - - - 0.0
18/01:00pm 22.7 - 6.2 34 8.8 - - - - - - - 0.0
18/12:50pm 21.7 - 5.7 35 8.4 - - - - - - - 0.0
18/12:40pm 22.2 - 6.3 35 8.5 - - - - - - - 0.0
18/12:30pm 22.0 - 5.3 33 8.7 - - - - - - - 0.0
18/12:20pm 21.4 - 5.3 35 8.4 - - - - - - - 0.0
18/12:10pm 21.2 - 5.9 37 8.1 - - - - - - - 0.0
18/12:00pm 21.0 - 5.6 36 8.1 - - - - - - - 0.0
18/11:50am 20.6 - 5.0 36 8.0 - - - - - - - 0.0
18/11:40am 20.8 - 5.1 35 8.1 - - - - - - - 0.0
18/11:30am 20.0 - 6.5 41 7.1 - - - - - - - 0.0
18/11:20am 19.5 - 7.2 45 6.6 - - - - - - - 0.0
18/11:10am 19.4 - 7.8 47 6.3 - - - - - - - 0.0

Other formats

Comma delimited format used in spreadsheet applications
http://www.bom.gov.au/fwo/IDN60801/IDN60801.99106.axf

JavaScript Object Notation format (JSON) in row-major order
http://www.bom.gov.au/fwo/IDN60801/IDN60801.99106.json

Data quality

Most of these data are generated automatically and are frequently updated. Quality checks on data are not normally performed. It is possible for incorrect values to appear. Refer to information at About Latest Weather Observations and please check the disclaimer before using these data.